sensor_id;sensor_type;location;lat;lon;timestamp;P1;durP1;ratioP1;P2;durP2;ratioP2
12228;SDS011;6177;52.402;9.800;2023-03-14T00:02:51;1.53;;;1.20;;
12228;SDS011;6177;52.402;9.800;2023-03-14T00:05:43;1.90;;;1.17;;
12228;SDS011;6177;52.402;9.800;2023-03-14T00:08:35;4.00;;;1.40;;
12228;SDS011;6177;52.402;9.800;2023-03-14T00:11:26;1.70;;;0.90;;
12228;SDS011;6177;52.402;9.800;2023-03-14T00:14:17;1.97;;;1.00;;
12228;SDS011;6177;52.402;9.800;2023-03-14T00:17:09;1.50;;;1.20;;
12228;SDS011;6177;52.402;9.800;2023-03-14T00:20:00;1.67;;;1.00;;
12228;SDS011;6177;52.402;9.800;2023-03-14T00:22:55;0.70;;;0.70;;
12228;SDS011;6177;52.402;9.800;2023-03-14T00:25:46;1.97;;;1.17;;
12228;SDS011;6177;52.402;9.800;2023-03-14T00:28:37;2.30;;;1.20;;
12228;SDS011;6177;52.402;9.800;2023-03-14T00:31:28;1.20;;;0.73;;
12228;SDS011;6177;52.402;9.800;2023-03-14T00:34:18;1.00;;;1.00;;
12228;SDS011;6177;52.402;9.800;2023-03-14T00:37:10;2.10;;;1.37;;
12228;SDS011;6177;52.402;9.800;2023-03-14T00:40:02;1.70;;;1.13;;
12228;SDS011;6177;52.402;9.800;2023-03-14T00:42:56;1.17;;;1.00;;
12228;SDS011;6177;52.402;9.800;2023-03-14T00:45:48;0.90;;;0.90;;
12228;SDS011;6177;52.402;9.800;2023-03-14T00:48:42;2.23;;;0.77;;
12228;SDS011;6177;52.402;9.800;2023-03-14T00:51:34;2.13;;;0.80;;
12228;SDS011;6177;52.402;9.800;2023-03-14T00:54:25;1.47;;;1.00;;
12228;SDS011;6177;52.402;9.800;2023-03-14T00:57:17;1.27;;;1.20;;
12228;SDS011;6177;52.402;9.800;2023-03-14T01:00:08;2.30;;;1.23;;
12228;SDS011;6177;52.402;9.800;2023-03-14T01:03:02;1.50;;;1.40;;
12228;SDS011;6177;52.402;9.800;2023-03-14T01:05:53;2.47;;;1.57;;
12228;SDS011;6177;52.402;9.800;2023-03-14T01:08:45;3.03;;;1.40;;
12228;SDS011;6177;52.402;9.800;2023-03-14T01:11:36;1.70;;;1.30;;
12228;SDS011;6177;52.402;9.800;2023-03-14T01:14:27;1.80;;;1.10;;
12228;SDS011;6177;52.402;9.800;2023-03-14T01:17:18;1.10;;;1.00;;
12228;SDS011;6177;52.402;9.800;2023-03-14T01:20:09;2.37;;;1.00;;
12228;SDS011;6177;52.402;9.800;2023-03-14T01:23:02;1.77;;;0.80;;
12228;SDS011;6177;52.402;9.800;2023-03-14T01:25:53;2.83;;;1.10;;
12228;SDS011;6177;52.402;9.800;2023-03-14T01:28:45;1.97;;;0.80;;
12228;SDS011;6177;52.402;9.800;2023-03-14T01:31:37;0.90;;;0.80;;
12228;SDS011;6177;52.402;9.800;2023-03-14T01:34:27;1.33;;;0.90;;
12228;SDS011;6177;52.402;9.800;2023-03-14T01:37:18;4.23;;;1.10;;
12228;SDS011;6177;52.402;9.800;2023-03-14T01:40:10;2.47;;;1.03;;
12228;SDS011;6177;52.402;9.800;2023-03-14T01:43:13;1.33;;;1.10;;
12228;SDS011;6177;52.402;9.800;2023-03-14T01:52:39;1.20;;;1.10;;
12228;SDS011;6177;52.402;9.800;2023-03-14T01:55:35;2.07;;;0.90;;
12228;SDS011;6177;52.402;9.800;2023-03-14T01:58:27;2.07;;;1.10;;
12228;SDS011;6177;52.402;9.800;2023-03-14T02:01:18;2.37;;;1.10;;
12228;SDS011;6177;52.402;9.800;2023-03-14T02:04:11;1.60;;;0.90;;
12228;SDS011;6177;52.402;9.800;2023-03-14T02:07:10;1.20;;;1.07;;
12228;SDS011;6177;52.402;9.800;2023-03-14T02:10:09;1.80;;;0.90;;
12228;SDS011;6177;52.402;9.800;2023-03-14T02:13:02;1.80;;;0.80;;
12228;SDS011;6177;52.402;9.800;2023-03-14T02:16:14;1.20;;;1.10;;
12228;SDS011;6177;52.402;9.800;2023-03-14T02:22:55;2.17;;;0.80;;
12228;SDS011;6177;52.402;9.800;2023-03-14T02:25:51;1.20;;;0.73;;
12228;SDS011;6177;52.402;9.800;2023-03-14T02:28:46;0.77;;;0.77;;
12228;SDS011;6177;52.402;9.800;2023-03-14T02:31:37;0.70;;;0.70;;
12228;SDS011;6177;52.402;9.800;2023-03-14T02:34:28;1.13;;;0.90;;
12228;SDS011;6177;52.402;9.800;2023-03-14T02:37:19;0.70;;;0.70;;
12228;SDS011;6177;52.402;9.800;2023-03-14T02:40:11;2.07;;;0.80;;
12228;SDS011;6177;52.402;9.800;2023-03-14T02:43:03;1.63;;;0.80;;
12228;SDS011;6177;52.402;9.800;2023-03-14T02:45:55;0.87;;;0.63;;
12228;SDS011;6177;52.402;9.800;2023-03-14T02:48:54;3.67;;;1.03;;
12228;SDS011;6177;52.402;9.800;2023-03-14T02:51:47;2.83;;;1.00;;
12228;SDS011;6177;52.402;9.800;2023-03-14T02:54:38;1.33;;;0.73;;
12228;SDS011;6177;52.402;9.800;2023-03-14T02:57:29;2.10;;;0.87;;
12228;SDS011;6177;52.402;9.800;2023-03-14T03:00:20;1.10;;;1.00;;
12228;SDS011;6177;52.402;9.800;2023-03-14T03:03:11;2.00;;;0.80;;
12228;SDS011;6177;52.402;9.800;2023-03-14T03:06:02;2.40;;;0.80;;
12228;SDS011;6177;52.402;9.800;2023-03-14T03:08:54;3.37;;;0.90;;
12228;SDS011;6177;52.402;9.800;2023-03-14T03:11:44;1.10;;;0.63;;
12228;SDS011;6177;52.402;9.800;2023-03-14T03:14:40;3.40;;;0.70;;
12228;SDS011;6177;52.402;9.800;2023-03-14T03:17:32;2.63;;;0.73;;
12228;SDS011;6177;52.402;9.800;2023-03-14T03:20:23;1.50;;;0.73;;
12228;SDS011;6177;52.402;9.800;2023-03-14T03:23:14;1.63;;;0.90;;
12228;SDS011;6177;52.402;9.800;2023-03-14T03:26:04;1.80;;;0.80;;
12228;SDS011;6177;52.402;9.800;2023-03-14T03:28:56;1.90;;;0.80;;
12228;SDS011;6177;52.402;9.800;2023-03-14T03:31:48;2.47;;;0.93;;
12228;SDS011;6177;52.402;9.800;2023-03-14T03:34:39;2.20;;;1.10;;
12228;SDS011;6177;52.402;9.800;2023-03-14T03:37:30;2.67;;;0.80;;
12228;SDS011;6177;52.402;9.800;2023-03-14T03:40:22;1.47;;;1.13;;
12228;SDS011;6177;52.402;9.800;2023-03-14T03:43:13;1.13;;;0.87;;
12228;SDS011;6177;52.402;9.800;2023-03-14T03:46:07;0.90;;;0.70;;
12228;SDS011;6177;52.402;9.800;2023-03-14T03:48:59;1.10;;;0.90;;
12228;SDS011;6177;52.402;9.800;2023-03-14T03:51:52;0.97;;;0.80;;
12228;SDS011;6177;52.402;9.800;2023-03-14T03:54:42;2.90;;;0.90;;
12228;SDS011;6177;52.402;9.800;2023-03-14T03:57:32;1.00;;;0.83;;
12228;SDS011;6177;52.402;9.800;2023-03-14T04:00:22;4.13;;;1.10;;
12228;SDS011;6177;52.402;9.800;2023-03-14T04:03:13;2.77;;;1.40;;
12228;SDS011;6177;52.402;9.800;2023-03-14T04:06:06;1.97;;;1.17;;
12228;SDS011;6177;52.402;9.800;2023-03-14T04:09:00;3.53;;;1.50;;
12228;SDS011;6177;52.402;9.800;2023-03-14T04:12:05;0.93;;;0.70;;
12228;SDS011;6177;52.402;9.800;2023-03-14T04:15:16;0.97;;;0.57;;
12228;SDS011;6177;52.402;9.800;2023-03-14T04:18:11;1.07;;;0.57;;
12228;SDS011;6177;52.402;9.800;2023-03-14T04:21:02;0.53;;;0.47;;
12228;SDS011;6177;52.402;9.800;2023-03-14T04:24:02;1.13;;;0.30;;
12228;SDS011;6177;52.402;9.800;2023-03-14T04:26:57;1.17;;;0.60;;
12228;SDS011;6177;52.402;9.800;2023-03-14T04:29:49;0.57;;;0.50;;
12228;SDS011;6177;52.402;9.800;2023-03-14T04:32:44;0.73;;;0.60;;
12228;SDS011;6177;52.402;9.800;2023-03-14T04:35:35;1.37;;;0.47;;
12228;SDS011;6177;52.402;9.800;2023-03-14T04:38:31;1.80;;;0.63;;
12228;SDS011;6177;52.402;9.800;2023-03-14T04:41:22;0.77;;;0.50;;
12228;SDS011;6177;52.402;9.800;2023-03-14T04:44:14;0.50;;;0.40;;
12228;SDS011;6177;52.402;9.800;2023-03-14T04:47:05;1.47;;;0.60;;
12228;SDS011;6177;52.402;9.800;2023-03-14T04:49:55;0.40;;;0.37;;
12228;SDS011;6177;52.402;9.800;2023-03-14T04:52:48;0.40;;;0.40;;
12228;SDS011;6177;52.402;9.800;2023-03-14T04:55:39;0.97;;;0.40;;
12228;SDS011;6177;52.402;9.800;2023-03-14T04:58:30;0.93;;;0.30;;
12228;SDS011;6177;52.402;9.800;2023-03-14T05:01:23;0.57;;;0.40;;
12228;SDS011;6177;52.402;9.800;2023-03-14T05:04:40;0.40;;;0.27;;
12228;SDS011;6177;52.402;9.800;2023-03-14T05:07:55;0.47;;;0.33;;
12228;SDS011;6177;52.402;9.800;2023-03-14T05:11:24;1.30;;;0.50;;
12228;SDS011;6177;52.402;9.800;2023-03-14T05:14:39;2.40;;;0.90;;
12228;SDS011;6177;52.402;9.800;2023-03-14T05:17:47;1.20;;;0.47;;
12228;SDS011;6177;52.402;9.800;2023-03-14T05:21:06;1.50;;;0.23;;
12228;SDS011;6177;52.402;9.800;2023-03-14T05:24:19;0.70;;;0.43;;
12228;SDS011;6177;52.402;9.800;2023-03-14T05:27:15;1.33;;;0.40;;
12228;SDS011;6177;52.402;9.800;2023-03-14T05:30:18;0.60;;;0.40;;
12228;SDS011;6177;52.402;9.800;2023-03-14T05:33:29;0.83;;;0.63;;
12228;SDS011;6177;52.402;9.800;2023-03-14T05:36:33;0.53;;;0.50;;
12228;SDS011;6177;52.402;9.800;2023-03-14T05:39:46;0.87;;;0.40;;
12228;SDS011;6177;52.402;9.800;2023-03-14T05:42:57;1.10;;;0.50;;
12228;SDS011;6177;52.402;9.800;2023-03-14T05:46:10;0.83;;;0.57;;
12228;SDS011;6177;52.402;9.800;2023-03-14T05:49:11;0.50;;;0.40;;
12228;SDS011;6177;52.402;9.800;2023-03-14T05:52:26;2.00;;;0.60;;
12228;SDS011;6177;52.402;9.800;2023-03-14T05:55:35;0.87;;;0.60;;
12228;SDS011;6177;52.402;9.800;2023-03-14T05:58:47;1.33;;;0.80;;
12228;SDS011;6177;52.402;9.800;2023-03-14T06:01:58;1.10;;;0.87;;
12228;SDS011;6177;52.402;9.800;2023-03-14T06:04:52;2.47;;;0.80;;
12228;SDS011;6177;52.402;9.800;2023-03-14T06:07:43;3.77;;;1.00;;
12228;SDS011;6177;52.402;9.800;2023-03-14T06:10:35;0.80;;;0.80;;
12228;SDS011;6177;52.402;9.800;2023-03-14T06:13:27;2.23;;;1.00;;
12228;SDS011;6177;52.402;9.800;2023-03-14T06:16:18;4.07;;;0.80;;
12228;SDS011;6177;52.402;9.800;2023-03-14T06:19:09;3.33;;;1.07;;
12228;SDS011;6177;52.402;9.800;2023-03-14T06:22:01;2.20;;;0.90;;
12228;SDS011;6177;52.402;9.800;2023-03-14T06:24:52;1.87;;;0.83;;
12228;SDS011;6177;52.402;9.800;2023-03-14T06:27:43;1.87;;;1.23;;
12228;SDS011;6177;52.402;9.800;2023-03-14T06:30:34;2.40;;;1.00;;
12228;SDS011;6177;52.402;9.800;2023-03-14T06:33:25;4.83;;;0.87;;
12228;SDS011;6177;52.402;9.800;2023-03-14T06:36:16;2.13;;;1.10;;
12228;SDS011;6177;52.402;9.800;2023-03-14T06:39:09;3.90;;;1.00;;
12228;SDS011;6177;52.402;9.800;2023-03-14T06:42:04;1.70;;;0.80;;
12228;SDS011;6177;52.402;9.800;2023-03-14T06:44:56;0.93;;;0.87;;
12228;SDS011;6177;52.402;9.800;2023-03-14T06:47:50;5.03;;;0.60;;
12228;SDS011;6177;52.402;9.800;2023-03-14T06:50:44;1.33;;;0.63;;
12228;SDS011;6177;52.402;9.800;2023-03-14T06:53:35;1.00;;;0.63;;
12228;SDS011;6177;52.402;9.800;2023-03-14T06:56:27;4.17;;;1.30;;
12228;SDS011;6177;52.402;9.800;2023-03-14T06:59:20;0.90;;;0.60;;
12228;SDS011;6177;52.402;9.800;2023-03-14T07:02:13;1.87;;;0.80;;
12228;SDS011;6177;52.402;9.800;2023-03-14T07:05:05;0.73;;;0.60;;
12228;SDS011;6177;52.402;9.800;2023-03-14T07:07:56;2.73;;;0.73;;
12228;SDS011;6177;52.402;9.800;2023-03-14T07:10:48;0.40;;;0.30;;
12228;SDS011;6177;52.402;9.800;2023-03-14T07:13:39;0.67;;;0.47;;
12228;SDS011;6177;52.402;9.800;2023-03-14T07:16:31;0.40;;;0.30;;
12228;SDS011;6177;52.402;9.800;2023-03-14T07:19:23;0.47;;;0.20;;
12228;SDS011;6177;52.402;9.800;2023-03-14T07:22:14;0.97;;;0.30;;
12228;SDS011;6177;52.402;9.800;2023-03-14T07:25:05;0.83;;;0.40;;
12228;SDS011;6177;52.402;9.800;2023-03-14T07:27:56;0.63;;;0.20;;
12228;SDS011;6177;52.402;9.800;2023-03-14T07:30:47;0.97;;;0.40;;
12228;SDS011;6177;52.402;9.800;2023-03-14T07:33:45;0.47;;;0.20;;
12228;SDS011;6177;52.402;9.800;2023-03-14T07:36:36;2.17;;;0.37;;
12228;SDS011;6177;52.402;9.800;2023-03-14T07:39:26;0.70;;;0.10;;
12228;SDS011;6177;52.402;9.800;2023-03-14T07:42:28;0.10;;;0.10;;
12228;SDS011;6177;52.402;9.800;2023-03-14T07:45:21;0.60;;;0.50;;
12228;SDS011;6177;52.402;9.800;2023-03-14T07:48:12;1.03;;;0.40;;
12228;SDS011;6177;52.402;9.800;2023-03-14T07:51:03;0.20;;;0.20;;
12228;SDS011;6177;52.402;9.800;2023-03-14T07:53:54;0.33;;;0.33;;
12228;SDS011;6177;52.402;9.800;2023-03-14T07:56:45;0.53;;;0.23;;
12228;SDS011;6177;52.402;9.800;2023-03-14T07:59:36;0.20;;;0.20;;
12228;SDS011;6177;52.402;9.800;2023-03-14T08:02:27;0.23;;;0.10;;
12228;SDS011;6177;52.402;9.800;2023-03-14T08:05:18;0.20;;;0.20;;
12228;SDS011;6177;52.402;9.800;2023-03-14T08:08:09;0.20;;;0.20;;
12228;SDS011;6177;52.402;9.800;2023-03-14T08:11:04;0.30;;;0.30;;
12228;SDS011;6177;52.402;9.800;2023-03-14T08:13:56;1.37;;;0.30;;
12228;SDS011;6177;52.402;9.800;2023-03-14T08:16:47;0.20;;;0.10;;
12228;SDS011;6177;52.402;9.800;2023-03-14T08:19:38;0.17;;;0.17;;
12228;SDS011;6177;52.402;9.800;2023-03-14T08:22:28;0.30;;;0.20;;
12228;SDS011;6177;52.402;9.800;2023-03-14T08:25:19;0.20;;;0.20;;
12228;SDS011;6177;52.402;9.800;2023-03-14T08:28:10;0.27;;;0.20;;
12228;SDS011;6177;52.402;9.800;2023-03-14T08:31:01;0.30;;;0.30;;
12228;SDS011;6177;52.402;9.800;2023-03-14T08:33:52;0.10;;;0.10;;
12228;SDS011;6177;52.402;9.800;2023-03-14T08:36:43;0.10;;;0.10;;
12228;SDS011;6177;52.402;9.800;2023-03-14T08:39:33;0.43;;;0.10;;
12228;SDS011;6177;52.402;9.800;2023-03-14T08:42:24;0.57;;;0.10;;
12228;SDS011;6177;52.402;9.800;2023-03-14T08:45:15;0.60;;;0.10;;
12228;SDS011;6177;52.402;9.800;2023-03-14T08:48:09;0.10;;;0.10;;
12228;SDS011;6177;52.402;9.800;2023-03-14T08:51:04;0.10;;;0.10;;
12228;SDS011;6177;52.402;9.800;2023-03-14T08:53:55;0.10;;;0.10;;
12228;SDS011;6177;52.402;9.800;2023-03-14T08:56:46;0.57;;;0.30;;
12228;SDS011;6177;52.402;9.800;2023-03-14T08:59:37;0.10;;;0.10;;
12228;SDS011;6177;52.402;9.800;2023-03-14T09:02:28;0.13;;;0.13;;
12228;SDS011;6177;52.402;9.800;2023-03-14T09:05:19;0.33;;;0.30;;
12228;SDS011;6177;52.402;9.800;2023-03-14T09:08:10;0.17;;;0.17;;
12228;SDS011;6177;52.402;9.800;2023-03-14T09:11:01;0.10;;;0.10;;
12228;SDS011;6177;52.402;9.800;2023-03-14T09:13:52;1.93;;;0.17;;
12228;SDS011;6177;52.402;9.800;2023-03-14T09:16:43;0.77;;;0.53;;
12228;SDS011;6177;52.402;9.800;2023-03-14T09:19:34;0.73;;;0.30;;
12228;SDS011;6177;52.402;9.800;2023-03-14T09:22:25;0.20;;;0.20;;
12228;SDS011;6177;52.402;9.800;2023-03-14T09:25:17;0.40;;;0.40;;
12228;SDS011;6177;52.402;9.800;2023-03-14T09:28:08;0.40;;;0.40;;
12228;SDS011;6177;52.402;9.800;2023-03-14T09:31:06;1.23;;;0.30;;
12228;SDS011;6177;52.402;9.800;2023-03-14T09:33:58;0.23;;;0.23;;
12228;SDS011;6177;52.402;9.800;2023-03-14T09:36:49;0.40;;;0.40;;
12228;SDS011;6177;52.402;9.800;2023-03-14T09:39:40;0.30;;;0.30;;
12228;SDS011;6177;52.402;9.800;2023-03-14T09:42:31;0.30;;;0.30;;
12228;SDS011;6177;52.402;9.800;2023-03-14T09:48:20;0.20;;;0.20;;
12228;SDS011;6177;52.402;9.800;2023-03-14T09:51:17;0.30;;;0.30;;
12228;SDS011;6177;52.402;9.800;2023-03-14T09:54:15;0.20;;;0.20;;
12228;SDS011;6177;52.402;9.800;2023-03-14T09:57:17;2.47;;;1.57;;
12228;SDS011;6177;52.402;9.800;2023-03-14T10:00:30;0.43;;;0.30;;
12228;SDS011;6177;52.402;9.800;2023-03-14T10:03:39;0.30;;;0.30;;
12228;SDS011;6177;52.402;9.800;2023-03-14T10:06:31;0.40;;;0.40;;
12228;SDS011;6177;52.402;9.800;2023-03-14T10:09:23;0.30;;;0.30;;
12228;SDS011;6177;52.402;9.800;2023-03-14T10:12:15;0.30;;;0.30;;
12228;SDS011;6177;52.402;9.800;2023-03-14T10:15:08;0.20;;;0.10;;
12228;SDS011;6177;52.402;9.800;2023-03-14T10:18:01;0.93;;;0.30;;
12228;SDS011;6177;52.402;9.800;2023-03-14T10:21:04;0.23;;;0.23;;
12228;SDS011;6177;52.402;9.800;2023-03-14T10:27:20;0.33;;;0.33;;
12228;SDS011;6177;52.402;9.800;2023-03-14T10:30:27;0.40;;;0.23;;
12228;SDS011;6177;52.402;9.800;2023-03-14T10:33:20;0.27;;;0.27;;
12228;SDS011;6177;52.402;9.800;2023-03-14T10:36:23;0.60;;;0.60;;
12228;SDS011;6177;52.402;9.800;2023-03-14T10:39:26;0.40;;;0.40;;
12228;SDS011;6177;52.402;9.800;2023-03-14T10:42:24;0.30;;;0.30;;
12228;SDS011;6177;52.402;9.800;2023-03-14T10:45:35;0.30;;;0.30;;
12228;SDS011;6177;52.402;9.800;2023-03-14T10:48:34;0.53;;;0.40;;
12228;SDS011;6177;52.402;9.800;2023-03-14T10:51:27;0.40;;;0.40;;
12228;SDS011;6177;52.402;9.800;2023-03-14T10:54:20;0.37;;;0.37;;
12228;SDS011;6177;52.402;9.800;2023-03-14T10:57:12;0.50;;;0.50;;
12228;SDS011;6177;52.402;9.800;2023-03-14T11:00:05;0.50;;;0.40;;
12228;SDS011;6177;52.402;9.800;2023-03-14T11:06:14;0.50;;;0.50;;
12228;SDS011;6177;52.402;9.800;2023-03-14T11:09:29;0.53;;;0.50;;
12228;SDS011;6177;52.402;9.800;2023-03-14T11:15:27;0.93;;;0.80;;
12228;SDS011;6177;52.402;9.800;2023-03-14T11:25:14;0.70;;;0.60;;
12228;SDS011;6177;52.402;9.800;2023-03-14T11:28:44;1.80;;;0.50;;
12228;SDS011;6177;52.402;9.800;2023-03-14T11:31:39;0.40;;;0.20;;
12228;SDS011;6177;52.402;9.800;2023-03-14T11:34:48;0.50;;;0.50;;
12228;SDS011;6177;52.402;9.800;2023-03-14T11:37:44;0.60;;;0.60;;
12228;SDS011;6177;52.402;9.800;2023-03-14T11:40:37;2.03;;;0.73;;
12228;SDS011;6177;52.402;9.800;2023-03-14T11:43:33;0.90;;;0.90;;
12228;SDS011;6177;52.402;9.800;2023-03-14T11:46:36;2.53;;;0.80;;
12228;SDS011;6177;52.402;9.800;2023-03-14T11:52:41;0.83;;;0.83;;
12228;SDS011;6177;52.402;9.800;2023-03-14T11:55:38;0.80;;;0.80;;
12228;SDS011;6177;52.402;9.800;2023-03-14T11:58:35;0.40;;;0.40;;
12228;SDS011;6177;52.402;9.800;2023-03-14T12:01:39;0.30;;;0.30;;
12228;SDS011;6177;52.402;9.800;2023-03-14T12:11:02;0.27;;;0.00;;
12228;SDS011;6177;52.402;9.800;2023-03-14T12:13:58;0.10;;;0.10;;
12228;SDS011;6177;52.402;9.800;2023-03-14T12:16:54;0.20;;;0.10;;
12228;SDS011;6177;52.402;9.800;2023-03-14T12:19:47;0.77;;;0.20;;
12228;SDS011;6177;52.402;9.800;2023-03-14T12:22:52;0.67;;;0.10;;
12228;SDS011;6177;52.402;9.800;2023-03-14T12:25:43;0.00;;;0.00;;
12228;SDS011;6177;52.402;9.800;2023-03-14T12:28:33;0.10;;;0.10;;
12228;SDS011;6177;52.402;9.800;2023-03-14T12:34:25;0.20;;;0.10;;
12228;SDS011;6177;52.402;9.800;2023-03-14T12:37:26;0.17;;;0.10;;
12228;SDS011;6177;52.402;9.800;2023-03-14T12:40:31;0.10;;;0.10;;
12228;SDS011;6177;52.402;9.800;2023-03-14T12:43:28;0.30;;;0.10;;
12228;SDS011;6177;52.402;9.800;2023-03-14T12:46:22;0.50;;;0.30;;
12228;SDS011;6177;52.402;9.800;2023-03-14T12:49:14;0.20;;;0.20;;
12228;SDS011;6177;52.402;9.800;2023-03-14T12:52:11;1.40;;;0.40;;
12228;SDS011;6177;52.402;9.800;2023-03-14T12:55:21;2.40;;;0.70;;
12228;SDS011;6177;52.402;9.800;2023-03-14T12:58:35;0.67;;;0.30;;
12228;SDS011;6177;52.402;9.800;2023-03-14T13:01:26;3.10;;;0.53;;
12228;SDS011;6177;52.402;9.800;2023-03-14T13:04:17;1.93;;;0.90;;
12228;SDS011;6177;52.402;9.800;2023-03-14T13:07:11;0.80;;;0.50;;
12228;SDS011;6177;52.402;9.800;2023-03-14T13:12:55;1.83;;;0.70;;
12228;SDS011;6177;52.402;9.800;2023-03-14T13:15:47;1.43;;;0.70;;
12228;SDS011;6177;52.402;9.800;2023-03-14T13:18:41;1.63;;;0.77;;
12228;SDS011;6177;52.402;9.800;2023-03-14T13:21:35;1.93;;;0.43;;
12228;SDS011;6177;52.402;9.800;2023-03-14T13:24:26;1.57;;;0.90;;
12228;SDS011;6177;52.402;9.800;2023-03-14T13:27:18;2.60;;;1.13;;
12228;SDS011;6177;52.402;9.800;2023-03-14T13:30:17;2.03;;;1.10;;
12228;SDS011;6177;52.402;9.800;2023-03-14T13:33:11;3.97;;;1.07;;
12228;SDS011;6177;52.402;9.800;2023-03-14T13:36:05;4.30;;;0.90;;
12228;SDS011;6177;52.402;9.800;2023-03-14T13:39:00;3.17;;;1.23;;
12228;SDS011;6177;52.402;9.800;2023-03-14T13:41:57;3.40;;;1.23;;
12228;SDS011;6177;52.402;9.800;2023-03-14T13:44:49;5.40;;;1.60;;
12228;SDS011;6177;52.402;9.800;2023-03-14T13:47:41;7.57;;;2.20;;
12228;SDS011;6177;52.402;9.800;2023-03-14T13:50:33;2.97;;;1.20;;
12228;SDS011;6177;52.402;9.800;2023-03-14T13:53:25;6.00;;;1.43;;
12228;SDS011;6177;52.402;9.800;2023-03-14T13:56:16;3.50;;;1.50;;
12228;SDS011;6177;52.402;9.800;2023-03-14T13:59:23;5.77;;;1.67;;
12228;SDS011;6177;52.402;9.800;2023-03-14T14:02:18;3.77;;;1.67;;
12228;SDS011;6177;52.402;9.800;2023-03-14T14:05:12;4.97;;;1.20;;
12228;SDS011;6177;52.402;9.800;2023-03-14T14:08:02;6.30;;;1.43;;
12228;SDS011;6177;52.402;9.800;2023-03-14T14:10:57;1.63;;;1.10;;
12228;SDS011;6177;52.402;9.800;2023-03-14T14:13:50;7.57;;;1.60;;
12228;SDS011;6177;52.402;9.800;2023-03-14T14:16:42;5.60;;;1.63;;
12228;SDS011;6177;52.402;9.800;2023-03-14T14:19:34;10.33;;;2.40;;
12228;SDS011;6177;52.402;9.800;2023-03-14T14:22:25;8.37;;;2.10;;
12228;SDS011;6177;52.402;9.800;2023-03-14T14:25:16;10.03;;;2.27;;
12228;SDS011;6177;52.402;9.800;2023-03-14T14:28:18;6.50;;;1.47;;
12228;SDS011;6177;52.402;9.800;2023-03-14T14:31:21;5.07;;;2.13;;
12228;SDS011;6177;52.402;9.800;2023-03-14T14:34:17;7.33;;;2.03;;
12228;SDS011;6177;52.402;9.800;2023-03-14T14:40:27;8.87;;;2.63;;
12228;SDS011;6177;52.402;9.800;2023-03-14T14:43:23;6.37;;;2.47;;
12228;SDS011;6177;52.402;9.800;2023-03-14T14:46:16;5.03;;;1.43;;
12228;SDS011;6177;52.402;9.800;2023-03-14T14:49:12;11.17;;;1.93;;
12228;SDS011;6177;52.402;9.800;2023-03-14T14:52:18;6.53;;;1.87;;
12228;SDS011;6177;52.402;9.800;2023-03-14T14:55:33;7.07;;;2.20;;
12228;SDS011;6177;52.402;9.800;2023-03-14T14:58:28;5.80;;;2.13;;
12228;SDS011;6177;52.402;9.800;2023-03-14T15:01:24;8.50;;;1.77;;
12228;SDS011;6177;52.402;9.800;2023-03-14T15:04:16;7.10;;;1.70;;
12228;SDS011;6177;52.402;9.800;2023-03-14T15:07:07;8.57;;;2.13;;
12228;SDS011;6177;52.402;9.800;2023-03-14T15:09:59;3.20;;;1.00;;
12228;SDS011;6177;52.402;9.800;2023-03-14T15:12:49;5.67;;;1.60;;
12228;SDS011;6177;52.402;9.800;2023-03-14T15:15:41;4.80;;;1.73;;
12228;SDS011;6177;52.402;9.800;2023-03-14T15:18:31;10.03;;;2.20;;
12228;SDS011;6177;52.402;9.800;2023-03-14T15:21:22;7.40;;;1.70;;
12228;SDS011;6177;52.402;9.800;2023-03-14T15:24:13;7.90;;;1.67;;
12228;SDS011;6177;52.402;9.800;2023-03-14T15:27:05;6.03;;;1.90;;
12228;SDS011;6177;52.402;9.800;2023-03-14T15:29:58;4.23;;;1.60;;
12228;SDS011;6177;52.402;9.800;2023-03-14T15:32:49;5.30;;;1.97;;
12228;SDS011;6177;52.402;9.800;2023-03-14T15:35:40;8.87;;;1.90;;
12228;SDS011;6177;52.402;9.800;2023-03-14T15:38:31;4.67;;;1.17;;
12228;SDS011;6177;52.402;9.800;2023-03-14T15:41:23;6.33;;;1.93;;
12228;SDS011;6177;52.402;9.800;2023-03-14T15:44:13;3.40;;;1.47;;
12228;SDS011;6177;52.402;9.800;2023-03-14T15:47:05;2.63;;;1.07;;
12228;SDS011;6177;52.402;9.800;2023-03-14T15:49:57;3.93;;;1.10;;
12228;SDS011;6177;52.402;9.800;2023-03-14T15:52:47;2.40;;;1.50;;
12228;SDS011;6177;52.402;9.800;2023-03-14T15:55:38;6.03;;;1.80;;
12228;SDS011;6177;52.402;9.800;2023-03-14T15:58:29;5.67;;;1.87;;
12228;SDS011;6177;52.402;9.800;2023-03-14T16:01:23;3.37;;;1.73;;
12228;SDS011;6177;52.402;9.800;2023-03-14T16:04:14;12.03;;;2.23;;
12228;SDS011;6177;52.402;9.800;2023-03-14T16:07:05;4.47;;;1.37;;
12228;SDS011;6177;52.402;9.800;2023-03-14T16:09:56;5.17;;;1.80;;
12228;SDS011;6177;52.402;9.800;2023-03-14T16:12:47;4.17;;;1.43;;
12228;SDS011;6177;52.402;9.800;2023-03-14T16:15:39;3.40;;;1.40;;
12228;SDS011;6177;52.402;9.800;2023-03-14T16:18:31;7.43;;;1.30;;
12228;SDS011;6177;52.402;9.800;2023-03-14T16:21:23;3.77;;;1.20;;
12228;SDS011;6177;52.402;9.800;2023-03-14T16:24:13;7.00;;;1.50;;
12228;SDS011;6177;52.402;9.800;2023-03-14T16:27:05;5.63;;;1.50;;
12228;SDS011;6177;52.402;9.800;2023-03-14T16:29:56;3.93;;;1.30;;
12228;SDS011;6177;52.402;9.800;2023-03-14T16:32:48;5.00;;;1.70;;
12228;SDS011;6177;52.402;9.800;2023-03-14T16:35:40;5.93;;;1.37;;
12228;SDS011;6177;52.402;9.800;2023-03-14T16:38:30;7.43;;;1.70;;
12228;SDS011;6177;52.402;9.800;2023-03-14T16:41:22;7.07;;;1.97;;
12228;SDS011;6177;52.402;9.800;2023-03-14T16:44:13;5.23;;;1.50;;
12228;SDS011;6177;52.402;9.800;2023-03-14T16:47:04;3.83;;;1.70;;
12228;SDS011;6177;52.402;9.800;2023-03-14T16:49:55;6.27;;;1.67;;
12228;SDS011;6177;52.402;9.800;2023-03-14T16:52:47;5.17;;;1.60;;
12228;SDS011;6177;52.402;9.800;2023-03-14T16:55:42;5.93;;;1.50;;
12228;SDS011;6177;52.402;9.800;2023-03-14T16:58:33;3.10;;;1.97;;
12228;SDS011;6177;52.402;9.800;2023-03-14T17:01:24;3.60;;;1.50;;
12228;SDS011;6177;52.402;9.800;2023-03-14T17:04:15;5.73;;;1.50;;
12228;SDS011;6177;52.402;9.800;2023-03-14T17:07:07;6.63;;;1.30;;
12228;SDS011;6177;52.402;9.800;2023-03-14T17:09:57;4.47;;;1.00;;
12228;SDS011;6177;52.402;9.800;2023-03-14T17:12:48;4.43;;;1.70;;
12228;SDS011;6177;52.402;9.800;2023-03-14T17:15:43;4.43;;;1.67;;
12228;SDS011;6177;52.402;9.800;2023-03-14T17:18:41;5.87;;;2.20;;
12228;SDS011;6177;52.402;9.800;2023-03-14T17:21:33;2.40;;;1.17;;
12228;SDS011;6177;52.402;9.800;2023-03-14T17:24:23;5.17;;;1.40;;
12228;SDS011;6177;52.402;9.800;2023-03-14T17:27:14;7.37;;;2.00;;
12228;SDS011;6177;52.402;9.800;2023-03-14T17:30:09;3.70;;;1.53;;
12228;SDS011;6177;52.402;9.800;2023-03-14T17:32:59;3.27;;;1.43;;
12228;SDS011;6177;52.402;9.800;2023-03-14T17:35:51;4.13;;;1.40;;
12228;SDS011;6177;52.402;9.800;2023-03-14T17:38:43;4.47;;;1.80;;
12228;SDS011;6177;52.402;9.800;2023-03-14T17:41:33;7.43;;;2.83;;
12228;SDS011;6177;52.402;9.800;2023-03-14T17:44:25;3.17;;;1.20;;
12228;SDS011;6177;52.402;9.800;2023-03-14T17:47:16;5.07;;;1.80;;
12228;SDS011;6177;52.402;9.800;2023-03-14T17:50:07;2.90;;;1.27;;
12228;SDS011;6177;52.402;9.800;2023-03-14T17:52:58;5.37;;;1.53;;
12228;SDS011;6177;52.402;9.800;2023-03-14T17:55:50;5.27;;;1.37;;
12228;SDS011;6177;52.402;9.800;2023-03-14T17:58:40;6.70;;;1.80;;
12228;SDS011;6177;52.402;9.800;2023-03-14T18:01:34;5.57;;;1.80;;
12228;SDS011;6177;52.402;9.800;2023-03-14T18:04:25;5.97;;;1.83;;
12228;SDS011;6177;52.402;9.800;2023-03-14T18:07:15;3.90;;;1.67;;
12228;SDS011;6177;52.402;9.800;2023-03-14T18:10:06;4.10;;;1.53;;
12228;SDS011;6177;52.402;9.800;2023-03-14T18:12:59;7.37;;;2.07;;
12228;SDS011;6177;52.402;9.800;2023-03-14T18:15:50;3.90;;;1.80;;
12228;SDS011;6177;52.402;9.800;2023-03-14T18:18:42;5.17;;;2.10;;
12228;SDS011;6177;52.402;9.800;2023-03-14T18:21:34;6.83;;;2.57;;
12228;SDS011;6177;52.402;9.800;2023-03-14T18:24:25;5.03;;;2.43;;
12228;SDS011;6177;52.402;9.800;2023-03-14T18:27:17;6.97;;;2.43;;
12228;SDS011;6177;52.402;9.800;2023-03-14T18:30:08;4.07;;;2.10;;
12228;SDS011;6177;52.402;9.800;2023-03-14T18:32:58;7.10;;;1.90;;
12228;SDS011;6177;52.402;9.800;2023-03-14T18:35:49;2.70;;;1.57;;